Time;durP1;ratioP1;P1;durP2;ratioP2;P2;SDS_P1;SDS_P2;PMS_P1;PMS_P2;Temp;Humidity;BMP_temperature;BMP_pressure;BME280_temperature;BME280_humidity;BME280_pressure;Samples;Min_cycle;Max_cycle;Signal;HPM_P1;HPM_P2
2022/12/02 00:40:26;;;;;;;47.85;32.40;;;;;;;2.13;88.35;101988.97;5055125;28;20126;-80
2022/12/02 01:48:27;;;;;;;53.35;34.55;;;;;;;2.12;89.32;101969.91;5049438;28;20044;-79
2022/12/02 07:44:53;;;;;;;31.73;21.23;;;;;;;2.02;87.61;101921.44;5053043;28;20056;-80
2022/12/02 08:27:40;;;;;;;28.63;18.52;;;;;;;2.19;88.20;101919.66;5066906;23;20223;31
2022/12/02 08:51:53;;;;;;;34.08;20.65;;;;;;;1.86;89.48;101931.00;5043531;28;20354;-63
2022/12/02 08:54:21;;;;;;;36.25;20.65;;;;;;;1.95;89.68;101925.78;5045925;28;20543;-61
2022/12/02 08:56:48;;;;;;;29.95;18.75;;;;;;;1.95;89.34;101936.19;5045337;28;20383;-64
2022/12/02 08:59:15;;;;;;;29.88;19.13;;;;;;;2.04;89.13;101932.69;5039051;28;20045;-63
2022/12/02 09:01:43;;;;;;;38.63;22.35;;;;;;;2.03;88.24;101918.84;5042895;28;20057;-65
2022/12/02 09:04:11;;;;;;;33.00;22.60;;;;;;;2.02;88.29;101924.88;5029605;28;20390;-61
2022/12/02 09:06:40;;;;;;;31.15;20.85;;;;;;;2.02;88.49;101924.88;5037399;28;20509;-63
2022/12/02 09:09:07;;;;;;;34.47;20.33;;;;;;;2.00;88.55;101925.78;5047709;28;20204;-64
2022/12/02 09:11:35;;;;;;;31.67;20.45;;;;;;;2.08;89.24;101925.75;5043024;28;20048;-62
2022/12/02 09:14:02;;;;;;;37.65;23.10;;;;;;;2.12;88.36;101917.97;5044153;28;20049;-62
2022/12/02 09:16:29;;;;;;;33.38;20.67;;;;;;;2.10;87.92;101904.09;5043738;28;20063;-64
2022/12/02 09:18:57;;;;;;;37.85;21.23;;;;;;;2.14;87.76;101905.81;5041833;28;20045;-62
2022/12/02 09:21:24;;;;;;;38.70;20.42;;;;;;;2.15;87.65;101917.06;5040488;28;20049;-63
2022/12/02 09:23:51;;;;;;;37.60;21.42;;;;;;;2.13;87.81;101929.22;5048139;28;20037;-63
2022/12/02 09:26:19;;;;;;;35.47;22.38;;;;;;;2.12;87.48;101914.50;5039263;28;20163;-63
2022/12/02 09:28:46;;;;;;;36.10;21.50;;;;;;;2.09;87.35;101909.31;5042395;28;20408;-62
2022/12/02 09:31:14;;;;;;;37.45;21.52;;;;;;;2.07;87.40;101911.88;5037760;28;20393;-63
2022/12/02 09:33:41;;;;;;;32.63;21.20;;;;;;;2.17;87.50;101918.81;5041053;28;20045;-64
2022/12/02 09:36:08;;;;;;;38.70;24.00;;;;;;;2.16;87.37;101926.56;5032147;28;20076;-63
2022/12/02 09:38:37;;;;;;;38.53;21.48;;;;;;;2.10;87.34;101921.41;5044095;28;20090;-62
2022/12/02 09:41:04;;;;;;;39.13;21.30;;;;;;;2.17;87.46;101921.41;5027296;28;20049;-63
2022/12/02 09:43:32;;;;;;;39.50;21.25;;;;;;;2.19;87.41;101919.66;5038628;28;20057;-62
2022/12/02 09:46:00;;;;;;;37.38;21.67;;;;;;;2.16;87.48;101929.19;5041321;28;20053;-62
2022/12/02 09:48:28;;;;;;;34.42;22.02;;;;;;;2.19;87.67;101919.66;5048247;28;20064;-63
2022/12/02 09:50:56;;;;;;;35.72;21.50;;;;;;;2.29;87.46;101912.69;5047931;28;20095;-63
2022/12/02 09:53:28;;;;;;;37.35;22.10;;;;;;;2.32;87.41;101912.69;5039041;28;20053;-61
2022/12/02 09:55:55;;;;;;;40.90;22.83;;;;;;;2.33;87.18;101910.94;5030985;28;20048;-63
2022/12/02 09:58:23;;;;;;;36.63;21.75;;;;;;;2.34;87.30;101899.66;5046040;28;20053;-63
2022/12/02 10:00:51;;;;;;;38.70;24.02;;;;;;;2.24;87.16;101904.91;5032838;28;20057;-62
2022/12/02 10:03:23;;;;;;;35.28;21.77;;;;;;;2.21;87.63;101901.47;5038861;28;20057;-62
2022/12/02 10:05:50;;;;;;;36.08;22.08;;;;;;;2.16;87.81;101908.41;5046717;28;20049;-64
2022/12/02 10:08:21;;;;;;;35.33;20.60;;;;;;;2.27;88.05;101912.69;5041326;28;20071;-63
2022/12/02 10:10:48;;;;;;;35.42;21.55;;;;;;;2.35;88.42;101896.22;5027731;28;20049;-61
2022/12/02 10:13:18;;;;;;;34.80;21.52;;;;;;;2.43;87.82;101890.13;5041450;28;20055;-61
2022/12/02 10:15:45;;;;;;;36.45;21.92;;;;;;;2.42;87.73;101892.69;5027586;28;20064;-62
2022/12/02 10:18:17;;;;;;;37.55;21.92;;;;;;;2.41;87.48;101890.97;5042518;28;20439;-63
2022/12/02 10:20:45;;;;;;;38.50;22.10;;;;;;;2.33;87.32;101887.53;5041610;28;20049;-63
2022/12/02 10:23:19;;;;;;;38.25;21.52;;;;;;;2.24;87.59;101891.06;5042742;28;20043;-62
2022/12/02 10:25:48;;;;;;;35.42;21.90;;;;;;;2.26;87.77;101882.38;5039916;28;20041;-61
2022/12/02 10:28:25;;;;;;;40.92;23.20;;;;;;;2.24;88.05;101878.06;5025515;28;20048;-60
2022/12/02 10:31:00;;;;;;;39.78;21.98;;;;;;;2.27;87.95;101885.84;5040884;28;20044;-62
2022/12/02 10:33:29;;;;;;;40.83;23.02;;;;;;;2.28;87.97;101880.63;5021168;28;20057;-62
2022/12/02 10:35:58;;;;;;;40.95;23.92;;;;;;;2.12;88.27;101878.13;5042209;28;20045;-63
2022/12/02 10:38:38;;;;;;;43.47;23.45;;;;;;;1.99;88.95;101874.72;5037790;28;20416;-63
2022/12/02 10:41:13;;;;;;;42.97;24.17;;;;;;;1.96;89.23;101861.72;5024743;28;20041;-62
2022/12/02 10:43:42;;;;;;;41.65;23.83;;;;;;;2.03;89.23;101863.44;5042658;28;20045;-64
2022/12/02 10:46:13;;;;;;;44.72;23.10;;;;;;;2.03;89.46;101863.44;5035395;28;20062;-63
2022/12/02 10:48:41;;;;;;;45.47;25.02;;;;;;;2.05;89.47;101866.03;5042180;28;20053;-60
2022/12/02 10:51:19;;;;;;;43.00;23.60;;;;;;;2.03;89.23;101874.69;5044766;28;20053;-60
2022/12/02 10:53:49;;;;;;;40.90;23.83;;;;;;;2.08;89.27;101866.03;5033525;28;20056;-62
2022/12/02 10:56:24;;;;;;;42.40;25.17;;;;;;;2.08;89.20;101858.22;5032260;28;20045;-63
2022/12/02 10:58:54;;;;;;;45.78;25.05;;;;;;;2.16;89.12;101859.94;5033421;28;20055;-63
2022/12/02 11:01:21;;;;;;;40.40;23.27;;;;;;;2.18;88.73;101863.38;5045255;28;20037;-62
2022/12/02 11:03:49;;;;;;;42.75;24.10;;;;;;;2.12;88.35;101862.53;5025197;28;20051;-63
2022/12/02 11:06:19;;;;;;;48.42;25.88;;;;;;;2.08;88.77;101863.44;5046434;28;20048;-63
2022/12/02 11:08:47;;;;;;;44.80;24.92;;;;;;;2.10;88.65;101861.66;5046009;28;20488;-63
2022/12/02 11:11:35;;;;;;;45.40;25.02;;;;;;;2.11;88.21;101858.19;5029876;28;20041;-63
2022/12/02 11:14:13;;;;;;;50.22;28.23;;;;;;;2.13;88.55;101852.13;5038293;28;20045;-61
2022/12/02 11:16:42;;;;;;;43.50;24.70;;;;;;;2.17;88.16;101853.84;5041934;28;20658;-60
2022/12/02 11:19:39;;;;;;;49.20;26.05;;;;;;;2.30;88.55;101867.66;5040155;28;20058;-62
2022/12/02 11:22:44;;;;;;;45.22;26.33;;;;;;;2.21;86.74;101857.31;5044019;28;20049;-63
2022/12/02 11:25:43;;;;;;;47.15;26.33;;;;;;;2.14;87.42;101853.84;5044599;28;20049;-63
2022/12/02 11:28:28;;;;;;;51.75;27.27;;;;;;;2.17;87.27;101845.19;5038530;28;20043;-63
2022/12/02 11:31:10;;;;;;;54.22;30.88;;;;;;;2.20;87.61;101850.34;5036338;28;20065;-64
2022/12/02 11:34:00;;;;;;;55.17;31.45;;;;;;;2.17;87.01;101846.06;5043941;28;20041;-61
2022/12/02 11:36:34;;;;;;;51.78;28.63;;;;;;;2.08;86.85;101834.84;5041680;28;20045;-62
2022/12/02 11:39:06;;;;;;;53.03;28.88;;;;;;;2.04;87.34;101844.38;5045795;28;20044;-62
2022/12/02 11:41:48;;;;;;;49.75;27.95;;;;;;;2.13;87.78;101843.47;5018761;28;20140;-64
2022/12/02 11:44:27;;;;;;;51.75;29.77;;;;;;;2.21;87.68;101836.53;5040927;28;20057;-63
2022/12/02 11:46:58;;;;;;;45.97;26.35;;;;;;;2.27;87.27;101832.16;5043630;28;20264;-64
2022/12/02 11:49:35;;;;;;;49.97;27.52;;;;;;;2.37;87.49;101827.75;5028694;28;20049;-62
2022/12/02 11:52:15;;;;;;;56.85;28.55;;;;;;;2.37;86.71;101825.16;5043362;28;20043;-64
2022/12/02 11:54:52;;;;;;;48.40;28.40;;;;;;;2.43;86.80;101832.03;5034798;28;20045;-64
2022/12/02 11:57:28;;;;;;;50.58;28.60;;;;;;;2.41;87.03;101824.28;5037851;28;20049;-62
2022/12/02 11:59:56;;;;;;;53.95;28.67;;;;;;;2.40;86.57;101826.88;5039417;28;20037;-62
2022/12/02 12:02:24;;;;;;;52.95;29.40;;;;;;;2.29;86.41;101822.59;5036964;28;20053;-63
2022/12/02 12:05:04;;;;;;;48.53;27.48;;;;;;;2.27;86.72;101826.09;5032712;28;20064;-61
2022/12/02 12:07:48;;;;;;;50.65;28.40;;;;;;;2.21;86.87;101828.72;5041467;28;20050;-65
2022/12/02 12:10:28;;;;;;;48.78;26.95;;;;;;;2.28;86.90;101823.47;5034065;28;20077;-62
2022/12/02 12:13:15;;;;;;;57.08;31.63;;;;;;;2.31;86.42;101825.19;5022909;28;20059;-63
2022/12/02 12:15:48;;;;;;;54.60;30.98;;;;;;;2.36;86.49;101825.19;5046579;28;20045;-61
2022/12/02 12:18:37;;;;;;;52.95;28.80;;;;;;;2.24;86.30;101823.50;5045960;28;20045;-62
2022/12/02 12:21:05;;;;;;;51.78;30.48;;;;;;;2.24;86.24;101826.09;5043498;28;20065;-63
2022/12/02 12:23:36;;;;;;;53.00;29.35;;;;;;;2.23;86.77;101821.78;5039064;28;20052;-62
2022/12/02 12:26:04;;;;;;;53.67;28.35;;;;;;;2.23;86.24;101824.38;5036984;28;20049;-62
2022/12/02 12:28:34;;;;;;;50.70;29.15;;;;;;;2.11;86.33;101817.50;5034724;28;20049;-62
2022/12/02 12:31:04;;;;;;;54.95;30.35;;;;;;;2.14;86.90;101822.69;5037234;28;20041;-62
2022/12/02 12:33:32;;;;;;;50.88;28.40;;;;;;;2.12;86.99;101821.00;5027159;28;20049;-61
2022/12/02 12:36:00;;;;;;;52.10;29.58;;;;;;;2.20;86.64;101829.56;5036210;28;20073;-62
2022/12/02 12:38:28;;;;;;;56.85;29.13;;;;;;;2.26;86.60;101825.22;5025056;28;20060;-63
2022/12/02 12:40:57;;;;;;;54.22;28.10;;;;;;;2.34;86.95;101829.50;5027326;28;20045;-64
2022/12/02 12:43:25;;;;;;;52.70;28.98;;;;;;;2.38;86.58;101819.06;5031861;28;20045;-63
2022/12/02 12:45:52;;;;;;;54.00;29.35;;;;;;;2.43;86.12;101830.34;5036597;28;20044;-64
2022/12/02 12:48:20;;;;;;;51.38;29.98;;;;;;;2.34;85.58;101819.09;5046599;28;20420;-64
2022/12/02 12:50:47;;;;;;;54.92;29.98;;;;;;;2.31;85.81;101821.75;5039270;28;20383;-64
2022/12/02 12:53:14;;;;;;;55.25;29.67;;;;;;;2.38;85.83;101824.28;5038124;28;20042;-61
2022/12/02 12:55:41;;;;;;;51.90;28.80;;;;;;;2.29;84.40;101825.19;5046505;28;20070;-62
2022/12/02 12:58:09;;;;;;;57.83;32.75;;;;;;;2.20;84.48;101820.03;5045062;28;20052;-64
2022/12/02 13:00:36;;;;;;;49.22;28.65;;;;;;;2.14;85.20;101824.44;5038604;28;20049;-65
2022/12/02 13:03:03;;;;;;;55.45;31.08;;;;;;;2.09;85.48;101828.78;5038834;28;20057;-63
2022/12/02 13:05:31;;;;;;;51.85;27.58;;;;;;;2.09;86.15;101827.03;5040802;28;20052;-63
2022/12/02 13:07:58;;;;;;;53.13;28.02;;;;;;;2.11;85.28;101816.63;5044106;28;20041;-63
2022/12/02 13:10:26;;;;;;;57.90;33.33;;;;;;;2.02;85.05;101814.94;5044364;28;20409;-61
2022/12/02 13:12:53;;;;;;;52.20;29.95;;;;;;;2.01;85.16;101814.09;5039946;28;20049;-63
2022/12/02 13:15:20;;;;;;;50.40;29.08;;;;;;;2.01;85.54;101821.88;5042433;28;20045;-64
2022/12/02 13:17:48;;;;;;;52.95;29.10;;;;;;;2.07;85.74;101823.56;5038502;28;20045;-64
2022/12/02 13:20:16;;;;;;;51.30;27.25;;;;;;;2.10;85.62;101818.38;5037404;28;20045;-64
2022/12/02 13:22:44;;;;;;;48.30;27.05;;;;;;;2.07;84.78;101826.16;5037390;28;20525;-63
2022/12/02 13:25:12;;;;;;;57.78;30.98;;;;;;;2.08;84.99;101827.06;5040046;28;20138;-62
2022/12/02 13:27:40;;;;;;;56.17;28.05;;;;;;;2.01;83.55;101831.41;5048340;28;20045;-60
2022/12/02 13:30:11;;;;;;;53.20;27.77;;;;;;;2.02;84.64;101821.00;5041532;28;20512;-61
2022/12/02 13:32:38;;;;;;;51.15;28.67;;;;;;;2.04;84.68;101826.22;5037638;28;20048;-62
2022/12/02 13:35:06;;;;;;;50.53;27.45;;;;;;;1.99;83.40;101836.63;5036408;28;20052;-63
2022/12/02 13:37:34;;;;;;;56.22;29.38;;;;;;;1.92;83.91;101842.69;5041554;28;20053;-60
2022/12/02 13:40:04;;;;;;;48.33;25.60;;;;;;;1.97;84.57;101827.94;5038983;28;20443;-63
2022/12/02 13:42:31;;;;;;;58.08;29.10;;;;;;;1.95;83.74;101836.63;5036541;28;20060;-64
2022/12/02 13:44:58;;;;;;;52.97;28.90;;;;;;;1.87;83.81;101831.47;5039646;28;20049;-63
2022/12/02 15:03:42;;;;;;;53.55;31.10;;;;;;;1.29;81.98;101886.09;5040748;28;20099;-63
2022/12/02 15:11:35;;;;;;;49.78;28.83;;;;;;;1.24;82.83;101880.03;5039540;28;20515;-61
2022/12/02 15:14:02;;;;;;;52.15;31.40;;;;;;;1.18;82.12;101880.03;5042121;28;20045;-63
2022/12/02 15:16:30;;;;;;;50.72;29.50;;;;;;;1.16;82.34;101879.16;5045458;28;20053;-63
2022/12/02 15:18:57;;;;;;;53.95;30.10;;;;;;;1.06;81.87;101882.63;5039464;28;20056;-63
2022/12/02 15:21:25;;;;;;;50.50;29.92;;;;;;;1.09;82.66;101882.66;5045975;28;20051;-63
2022/12/02 15:23:52;;;;;;;47.83;28.38;;;;;;;1.20;82.79;101884.34;5050154;28;20057;-63
2022/12/02 15:26:19;;;;;;;49.42;29.02;;;;;;;1.26;82.08;101884.38;5051854;28;20061;-63
2022/12/02 15:28:47;;;;;;;47.60;27.35;;;;;;;1.31;82.22;101889.56;5050915;28;20488;-63
2022/12/02 15:31:17;;;;;;;52.35;30.55;;;;;;;1.24;82.04;101885.22;5047038;28;20048;-64
2022/12/02 15:33:45;;;;;;;47.28;26.98;;;;;;;1.16;81.85;101881.75;5041722;28;20055;-63
2022/12/02 15:36:13;;;;;;;46.42;27.75;;;;;;;1.10;81.21;101877.44;5049072;28;20075;-62
2022/12/02 15:38:41;;;;;;;51.13;28.90;;;;;;;0.97;80.97;101879.16;5048817;28;20059;-63
2022/12/02 15:41:08;;;;;;;44.38;27.65;;;;;;;1.04;82.10;101881.75;5025198;28;20045;-63
2022/12/02 15:43:36;;;;;;;48.15;27.65;;;;;;;1.09;81.46;101872.28;5035313;28;20044;-62
2022/12/02 15:46:03;;;;;;;46.85;27.63;;;;;;;1.04;81.31;101876.56;5045895;28;20079;-63
2022/12/02 15:48:30;;;;;;;45.58;26.02;;;;;;;1.04;82.23;101881.75;5046216;28;20513;-63
2022/12/02 15:50:58;;;;;;;44.72;26.88;;;;;;;1.03;81.39;101873.09;5024270;28;20409;-62
2022/12/02 15:53:25;;;;;;;45.13;26.63;;;;;;;0.91;81.29;101873.97;5042370;28;20053;-63
2022/12/02 15:55:52;;;;;;;45.15;27.13;;;;;;;0.80;81.19;101882.59;5043910;28;20056;-64
2022/12/02 15:58:19;;;;;;;43.42;26.48;;;;;;;0.79;81.76;101878.28;5039968;28;20049;-63
2022/12/02 16:00:47;;;;;;;44.10;26.77;;;;;;;0.79;81.80;101878.28;5042743;28;20147;-62
2022/12/02 16:03:14;;;;;;;44.67;24.83;;;;;;;0.73;82.19;101874.81;5047601;28;20088;-62
2022/12/02 16:05:42;;;;;;;44.28;25.98;;;;;;;0.73;82.82;101884.34;5045189;28;20053;-63
2022/12/02 16:08:09;;;;;;;43.70;25.48;;;;;;;0.72;82.10;101874.81;5047758;28;20047;-64
2022/12/02 16:10:36;;;;;;;45.22;25.65;;;;;;;0.74;82.57;101878.28;5043798;28;20057;-64
2022/12/02 16:13:04;;;;;;;43.17;24.85;;;;;;;0.70;83.15;101877.41;5042582;28;20041;-63
2022/12/02 16:15:31;;;;;;;43.30;25.40;;;;;;;0.71;82.81;101878.25;5037361;28;20050;-63
2022/12/02 16:17:58;;;;;;;45.85;26.38;;;;;;;0.76;83.23;101880.00;5041878;28;20458;-63
2022/12/02 16:20:26;;;;;;;45.72;26.10;;;;;;;0.80;83.17;101873.09;5040785;28;20068;-63
2022/12/02 16:22:53;;;;;;;42.80;25.20;;;;;;;0.76;82.65;101881.72;5045521;28;20055;-64
2022/12/02 16:25:20;;;;;;;39.60;23.75;;;;;;;0.80;83.32;101880.00;5040222;28;20060;-64
2022/12/02 16:27:47;;;;;;;47.58;26.25;;;;;;;0.87;83.16;101887.81;5040302;28;20051;-64
2022/12/02 16:30:15;;;;;;;52.03;26.25;;;;;;;0.96;82.99;101884.34;5039092;28;20047;-62
2022/12/02 16:32:43;;;;;;;43.70;24.75;;;;;;;0.87;81.83;101893.00;5040929;28;20045;-63
2022/12/02 16:35:10;;;;;;;47.67;25.98;;;;;;;0.72;82.46;101882.56;5040105;28;20424;-63
2022/12/02 16:37:37;;;;;;;51.38;27.98;;;;;;;0.59;82.89;101889.50;5040630;28;20057;-63
2022/12/02 16:40:05;;;;;;;49.33;26.15;;;;;;;0.52;83.23;101890.31;5042764;28;20417;-63
2022/12/02 16:42:33;;;;;;;44.92;24.95;;;;;;;0.54;83.90;101892.91;5036793;28;20047;-62
2022/12/02 16:45:00;;;;;;;52.17;28.73;;;;;;;0.63;83.92;101891.22;5038413;28;20515;-62
2022/12/02 16:47:29;;;;;;;53.50;29.58;;;;;;;0.65;83.65;101899.00;5041825;28;20057;-63
2022/12/02 16:49:56;;;;;;;51.65;28.10;;;;;;;0.52;83.85;101898.09;5038781;28;20543;-62
2022/12/02 16:52:23;;;;;;;48.47;28.17;;;;;;;0.58;83.75;101900.69;5044270;28;20071;-63
2022/12/02 16:54:51;;;;;;;46.75;27.25;;;;;;;0.67;83.95;101894.66;5047029;28;20079;-61
2022/12/02 16:57:19;;;;;;;51.00;29.00;;;;;;;0.76;83.55;101903.31;5039334;28;20509;-63
2022/12/02 16:59:46;;;;;;;57.50;31.08;;;;;;;0.72;83.05;101898.13;5043006;28;20783;-64
2022/12/02 17:02:13;;;;;;;53.72;30.77;;;;;;;0.72;83.43;101896.44;5044573;28;20059;-63
2022/12/02 17:04:41;;;;;;;55.20;30.70;;;;;;;0.65;83.39;101894.69;5043302;28;20053;-63
2022/12/02 17:07:08;;;;;;;53.50;29.73;;;;;;;0.57;83.71;101903.28;5044488;28;20505;-62
2022/12/02 17:09:36;;;;;;;56.58;30.52;;;;;;;0.51;83.84;101904.16;5047700;28;20051;-63
2022/12/02 17:12:03;;;;;;;54.92;29.85;;;;;;;0.48;84.00;101896.34;5040611;28;20501;-62
2022/12/02 17:14:31;;;;;;;53.03;30.17;;;;;;;0.53;84.31;101904.13;5035980;28;20052;-63
2022/12/02 17:16:58;;;;;;;54.83;30.75;;;;;;;0.57;84.02;101914.50;5035660;28;20053;-64
2022/12/02 17:19:25;;;;;;;58.30;31.52;;;;;;;0.63;84.26;101911.06;5039620;28;20059;-62
2022/12/02 17:21:53;;;;;;;53.88;30.45;;;;;;;0.69;84.60;101909.38;5041132;28;20063;-63
2022/12/02 17:24:20;;;;;;;54.47;30.67;;;;;;;0.71;83.87;101909.38;5044832;28;20059;-63
2022/12/02 17:26:47;;;;;;;54.00;29.00;;;;;;;0.73;83.93;101910.25;5043948;28;20053;-63
2022/12/02 17:29:21;;;;;;;51.55;29.30;;;;;;;0.80;83.67;101911.97;5035891;28;20477;-62
2022/12/02 17:31:49;;;;;;;53.33;31.17;;;;;;;0.79;83.48;101917.16;5042229;28;20049;-63
2022/12/02 17:34:16;;;;;;;55.35;33.15;;;;;;;0.81;83.14;101920.63;5029729;28;20053;-63
2022/12/02 17:36:43;;;;;;;54.42;31.60;;;;;;;0.80;83.33;101916.28;5046603;28;20052;-62
2022/12/02 17:39:12;;;;;;;60.70;33.72;;;;;;;0.65;82.86;101917.13;5046700;28;20063;-63
2022/12/02 17:41:40;;;;;;;56.90;30.90;;;;;;;0.68;83.73;101924.94;5048369;28;20041;-63
2022/12/02 17:44:07;;;;;;;59.63;31.35;;;;;;;0.75;83.31;101931.84;5048297;28;20037;-62
2022/12/02 17:46:41;;;;;;;60.95;33.22;;;;;;;0.78;83.25;101918.91;5048638;28;20061;-60
2022/12/02 17:49:08;;;;;;;54.08;30.08;;;;;;;0.84;83.32;101931.84;5044493;28;20049;-62
2022/12/02 17:51:36;;;;;;;57.15;34.17;;;;;;;0.78;82.63;101926.66;5044312;28;20057;-62
2022/12/02 17:54:03;;;;;;;55.95;33.03;;;;;;;0.74;83.26;101936.16;5049834;28;20055;-63
2022/12/02 17:56:30;;;;;;;61.10;33.15;;;;;;;0.76;83.25;101930.97;5046792;28;20064;-63
2022/12/02 17:58:57;;;;;;;63.90;34.42;;;;;;;0.79;83.15;101935.31;5048169;28;20057;-63
2022/12/02 18:01:25;;;;;;;62.20;34.08;;;;;;;0.76;82.61;101933.56;5019174;28;20049;-63
2022/12/02 18:03:52;;;;;;;65.22;33.78;;;;;;;0.66;83.19;101937.88;5046408;28;20049;-63
2022/12/02 18:06:19;;;;;;;60.88;33.58;;;;;;;0.55;83.70;101934.38;5048801;28;20051;-63
2022/12/02 18:08:47;;;;;;;62.28;33.17;;;;;;;0.48;83.82;101930.91;5047529;28;20048;-63
2022/12/02 18:11:14;;;;;;;64.63;35.05;;;;;;;0.49;84.06;101940.38;5047472;28;20045;-64
2022/12/02 18:13:43;;;;;;;60.45;33.10;;;;;;;0.52;84.26;101943.88;5048208;28;20438;-64
2022/12/02 18:16:10;;;;;;;66.05;35.38;;;;;;;0.53;83.83;101936.09;5044984;28;20045;-63
2022/12/02 18:18:37;;;;;;;63.15;33.55;;;;;;;0.45;84.15;101936.09;5043683;28;20057;-63
2022/12/02 18:21:05;;;;;;;61.92;34.22;;;;;;;0.40;83.64;101932.59;5047777;28;20038;-63
2022/12/02 18:23:32;;;;;;;61.30;34.05;;;;;;;0.42;84.31;101925.69;5047871;28;20038;-64
2022/12/02 18:25:59;;;;;;;65.00;34.25;;;;;;;0.35;83.68;101933.44;5047338;28;20131;-64
2022/12/02 18:28:27;;;;;;;64.85;34.88;;;;;;;0.28;84.31;101926.50;5048149;28;20061;-63
2022/12/02 18:30:54;;;;;;;62.47;34.28;;;;;;;0.20;84.45;101929.06;5048927;28;20037;-63
2022/12/02 18:33:22;;;;;;;68.25;35.55;;;;;;;0.14;84.79;101923.88;5047892;28;20051;-65
2022/12/02 18:35:49;;;;;;;66.93;36.28;;;;;;;0.07;85.26;101924.69;5044948;28;20064;-63
2022/12/02 18:38:16;;;;;;;74.43;36.67;;;;;;;0.04;85.25;101927.25;5047914;28;20065;-63
2022/12/02 18:40:44;;;;;;;67.05;35.97;;;;;;;0.13;85.18;101929.88;5047039;28;20041;-63
2022/12/02 18:43:11;;;;;;;65.45;35.80;;;;;;;0.15;85.06;101926.44;5047716;28;20041;-63
2022/12/02 18:45:38;;;;;;;69.13;36.88;;;;;;;0.17;85.04;101916.94;5047601;28;20059;-64
2022/12/02 18:48:05;;;;;;;67.90;34.95;;;;;;;0.13;84.71;101930.75;5047689;28;20052;-64
2022/12/02 18:50:33;;;;;;;68.13;36.85;;;;;;;0.10;85.44;101925.56;5047842;28;20047;-65
2022/12/02 18:53:00;;;;;;;66.75;36.10;;;;;;;0.21;85.36;101923.00;5047427;28;20049;-64
2022/12/02 18:55:27;;;;;;;72.05;37.58;;;;;;;0.29;84.91;101916.16;5042132;28;20061;-63
2022/12/02 18:57:55;;;;;;;63.33;36.42;;;;;;;0.21;84.72;101913.50;5047391;28;20052;-63
2022/12/02 19:00:22;;;;;;;71.22;37.25;;;;;;;0.23;84.83;101914.41;5040189;28;20056;-64
2022/12/02 19:02:49;;;;;;;68.20;37.47;;;;;;;0.13;84.49;101920.38;5044541;28;20045;-63
2022/12/02 19:05:17;;;;;;;63.90;35.90;;;;;;;0.06;84.83;101925.53;5048053;28;20139;-64
2022/12/02 19:07:44;;;;;;;73.97;38.15;;;;;;;-0.01;84.88;101925.50;5046528;28;20052;-64
2022/12/02 19:10:12;;;;;;;75.20;40.30;;;;;;;0.03;85.01;101922.94;5048404;28;20053;-65
2022/12/02 19:12:39;;;;;;;71.80;38.70;;;;;;;-0.05;85.27;101923.75;5049472;28;20045;-64
2022/12/02 19:15:07;;;;;;;67.63;38.33;;;;;;;-0.02;85.57;101925.50;5046223;28;20049;-64
2022/12/02 19:17:34;;;;;;;75.50;37.97;;;;;;;-0.06;85.27;101927.19;5048408;28;20051;-63
2022/12/02 19:20:03;;;;;;;75.43;40.30;;;;;;;-0.09;84.79;101926.31;5047389;28;20327;-63
2022/12/02 19:22:30;;;;;;;72.53;38.58;;;;;;;-0.11;84.75;101934.06;5033563;28;20079;-64
2022/12/02 19:24:57;;;;;;;72.00;41.17;;;;;;;-0.13;84.96;101934.94;5051001;28;20522;-63
2022/12/02 19:27:24;;;;;;;71.57;39.30;;;;;;;-0.11;85.10;101934.06;5051166;28;20057;-61
2022/12/02 19:30:12;;;;;;;74.10;40.00;;;;;;;-0.10;84.65;101932.34;5051305;28;20045;-64
2022/12/02 19:32:39;;;;;;;81.35;43.47;;;;;;;-0.09;84.84;101923.72;5049838;28;20059;-64
2022/12/02 19:35:07;;;;;;;77.32;41.35;;;;;;;-0.14;84.74;101922.81;5050672;28;20492;-64
2022/12/02 19:37:34;;;;;;;74.90;41.00;;;;;;;-0.18;84.83;101934.91;5050542;28;20539;-63
2022/12/02 19:40:01;;;;;;;78.25;42.30;;;;;;;-0.07;85.23;101928.06;5050908;28;20049;-64
2022/12/02 19:42:29;;;;;;;75.40;40.45;;;;;;;0.02;84.93;101927.25;5050208;28;20413;-64
2022/12/02 19:44:56;;;;;;;77.32;41.25;;;;;;;0.12;83.75;101926.44;5033429;28;20087;-62
2022/12/02 19:47:23;;;;;;;80.13;41.67;;;;;;;0.06;83.15;101928.13;5050593;28;20071;-62
2022/12/02 19:49:51;;;;;;;78.20;42.47;;;;;;;-0.03;83.04;101929.81;5050825;28;20048;-63
2022/12/02 19:52:18;;;;;;;73.80;40.03;;;;;;;-0.05;83.84;101925.47;5051131;28;20053;-63
2022/12/02 19:54:45;;;;;;;82.20;41.83;;;;;;;-0.05;83.59;101931.50;5050158;28;20037;-63
2022/12/02 19:57:18;;;;;;;77.50;40.70;;;;;;;-0.06;83.49;101934.97;5050131;28;20053;-64
2022/12/02 19:59:45;;;;;;;77.43;41.58;;;;;;;-0.04;83.33;101937.56;5045286;28;20057;-63
2022/12/02 20:02:12;;;;;;;74.88;41.42;;;;;;;-0.02;83.80;101934.13;5051080;28;20045;-64
2022/12/02 20:04:40;;;;;;;78.03;42.25;;;;;;;0.08;83.51;101940.22;5050148;28;20051;-64
2022/12/02 20:07:08;;;;;;;70.40;39.90;;;;;;;0.12;83.88;101938.50;5050894;28;20529;-64
2022/12/02 20:09:36;;;;;;;73.90;39.38;;;;;;;0.13;83.26;101935.06;5050144;28;20049;-64
2022/12/02 20:12:03;;;;;;;68.45;39.05;;;;;;;0.22;83.54;101937.69;5051615;28;20523;-65
2022/12/02 20:14:30;;;;;;;69.82;40.00;;;;;;;0.21;82.74;101942.00;5048739;28;20054;-64
2022/12/02 20:16:58;;;;;;;72.25;42.08;;;;;;;0.18;82.82;101948.88;5046019;28;20049;-64
2022/12/02 20:19:25;;;;;;;70.70;39.85;;;;;;;0.22;82.13;101941.13;5047211;28;20056;-64
2022/12/02 20:21:52;;;;;;;68.78;39.63;;;;;;;0.26;82.42;101931.66;5046647;28;20048;-64
2022/12/02 20:24:20;;;;;;;71.55;42.00;;;;;;;0.29;81.86;101934.28;5049466;28;20045;-62
2022/12/02 20:26:47;;;;;;;66.40;37.65;;;;;;;0.29;81.59;101925.66;5039148;28;20566;-64
2022/12/02 20:29:14;;;;;;;83.30;47.55;;;;;;;0.16;80.56;101935.94;5044714;28;20041;-65
2022/12/02 20:31:42;;;;;;;69.20;39.00;;;;;;;0.14;81.73;101939.41;5044632;28;20053;-64
2022/12/02 20:34:09;;;;;;;71.80;39.72;;;;;;;0.05;81.07;101931.59;5049067;28;20397;-64
2022/12/02 20:36:37;;;;;;;73.53;40.13;;;;;;;0.04;82.20;101932.41;5050165;28;20057;-63
2022/12/02 20:39:04;;;;;;;66.78;39.28;;;;;;;0.10;81.81;101929.88;5049481;28;20044;-63
2022/12/02 20:41:32;;;;;;;67.43;38.42;;;;;;;0.02;81.38;101927.25;5049889;28;20053;-66
2022/12/02 20:43:59;;;;;;;73.60;40.60;;;;;;;0.02;81.37;101924.66;5047242;28;20045;-64
2022/12/02 20:46:27;;;;;;;77.70;42.35;;;;;;;-0.03;81.69;101922.03;5049782;28;20048;-63
2022/12/02 20:48:55;;;;;;;72.22;41.03;;;;;;;-0.02;81.57;101926.34;5045454;23;20105;-85
2022/12/02 20:51:22;;;;;;;75.00;39.70;;;;;;;-0.08;81.57;101921.16;5025090;28;20132;-87
2022/12/02 20:53:51;;;;;;;71.57;40.95;;;;;;;-0.12;81.77;101924.56;5025561;28;20110;-84
2022/12/02 20:56:19;;;;;;;72.63;39.65;;;;;;;-0.18;81.46;101921.97;5020437;28;20113;-87
2022/12/02 20:58:48;;;;;;;68.80;38.22;;;;;;;-0.19;82.21;101916.75;4992954;28;20567;-85
2022/12/02 21:01:16;;;;;;;71.55;39.35;;;;;;;-0.15;81.66;101921.97;5010500;28;20077;-86
2022/12/02 21:03:44;;;;;;;74.50;40.13;;;;;;;-0.17;81.40;101922.81;5025751;28;20106;-86
2022/12/02 21:06:11;;;;;;;72.95;39.95;;;;;;;-0.20;81.57;101922.81;5022018;28;20468;-86
2022/12/02 21:08:39;;;;;;;70.78;40.22;;;;;;;-0.13;82.19;101922.00;5001686;28;20121;-85
2022/12/02 21:11:06;;;;;;;77.40;41.50;;;;;;;-0.25;81.02;101920.19;4993745;28;20093;-86
2022/12/02 21:13:34;;;;;;;74.43;39.22;;;;;;;-0.24;82.06;101919.31;5006182;28;20112;-85
2022/12/02 21:16:01;;;;;;;74.22;41.00;;;;;;;-0.15;82.36;101921.09;5007088;28;20089;-85
2022/12/02 21:18:29;;;;;;;70.57;40.53;;;;;;;-0.02;82.52;101920.31;5004918;28;20113;-86
2022/12/02 21:21:04;;;;;;;75.13;41.53;;;;;;;0.01;81.71;101930.69;5007300;28;20124;-84
2022/12/02 21:23:31;;;;;;;73.93;41.88;;;;;;;-0.06;81.08;101923.75;5016763;28;20460;-85
2022/12/02 21:25:59;;;;;;;75.85;40.92;;;;;;;-0.11;81.76;101928.03;5034789;28;20049;-86
2022/12/02 21:28:26;;;;;;;73.95;38.58;;;;;;;-0.21;81.02;101924.53;5011607;28;20113;-85